Schedule Details


Flight Number: CTN425
Departure: Duesseldorf (EDDL) at 16:40
Arrival: Cilipi (LDDU) at 18:40
Route: DODEN Y853 BOMBI T104 WLD UM867 VAROB DCT GIMIX DCT ROKSA UY450 NERRA

Weather Information
EDDL 290220Z 24013KT 9999 FEW013 SCT016 04/01 Q1002 TEMPO BKN014
LDDU 290200Z 17005KT 130V210 9999 BKN050 13/09 Q1010
Schedule Frequency

Route Map